createdAt,value
2022-09-10T00:09:45.359Z,13.72
2022-09-10T00:19:51.235Z,13.71
2022-09-10T00:29:57.348Z,13.57
2022-09-10T00:40:03.571Z,13.50
2022-09-10T00:50:18.629Z,13.44
2022-09-10T01:00:24.660Z,13.42
2022-09-10T01:10:34.534Z,13.45
2022-09-10T01:20:56.162Z,13.48
2022-09-10T01:31:11.410Z,13.47
2022-09-10T01:41:17.199Z,13.44
2022-09-10T01:51:36.983Z,13.48
2022-09-10T02:01:48.979Z,13.44
2022-09-10T02:11:56.328Z,13.43
2022-09-10T02:22:02.007Z,13.44
2022-09-10T02:32:08.272Z,13.46
2022-09-10T02:42:17.617Z,13.41
2022-09-10T02:52:23.261Z,13.30
2022-09-10T03:02:28.978Z,13.25
2022-09-10T03:12:34.629Z,13.24
2022-09-10T03:22:40.281Z,13.17
2022-09-10T03:32:45.900Z,13.22
2022-09-10T03:42:51.529Z,13.25
2022-09-10T03:52:57.125Z,13.22
2022-09-10T04:03:02.835Z,13.18
2022-09-10T04:13:09.284Z,13.12
2022-09-10T04:23:14.917Z,12.99
2022-09-10T04:33:20.657Z,12.97
2022-09-10T04:43:26.613Z,12.95
2022-09-10T04:53:32.463Z,12.98
2022-09-10T05:03:38.180Z,13.02
2022-09-10T05:13:43.993Z,13.10
2022-09-10T05:23:49.616Z,13.22
2022-09-10T05:33:55.877Z,13.28
2022-09-10T05:44:02.007Z,13.35
2022-09-10T05:54:08.203Z,13.47
2022-09-10T06:04:13.825Z,13.52
2022-09-10T06:14:20.399Z,13.56
2022-09-10T06:24:27.055Z,13.54
2022-09-10T06:34:32.675Z,13.60
2022-09-10T06:44:39.553Z,13.64
2022-09-10T06:54:45.504Z,13.64
2022-09-10T07:04:51.174Z,13.46
2022-09-10T07:14:56.780Z,13.28
2022-09-10T07:25:02.363Z,13.25
2022-09-10T07:35:09.393Z,13.28
2022-09-10T07:45:16.273Z,13.36
2022-09-10T07:55:23.364Z,13.51
2022-09-10T08:05:29.904Z,13.52
2022-09-10T08:15:36.131Z,13.64
2022-09-10T08:25:49.962Z,13.74
2022-09-10T08:36:00.406Z,13.87
2022-09-10T08:46:15.191Z,13.94
2022-09-10T08:56:23.384Z,13.94
2022-09-10T09:06:35.701Z,14.06
2022-09-10T09:16:57.263Z,14.13
2022-09-10T09:27:10.173Z,14.15
2022-09-10T09:37:22.408Z,14.29
2022-09-10T09:47:28.135Z,14.59
2022-09-10T09:57:33.904Z,14.98
2022-09-10T10:07:40.121Z,15.22
2022-09-10T10:17:45.818Z,15.38
2022-09-10T10:27:54.025Z,15.56
2022-09-10T10:38:17.427Z,15.66
2022-09-10T10:48:31.905Z,15.59
2022-09-10T10:59:00.801Z,15.43
2022-09-10T11:09:14.031Z,15.26
2022-09-10T11:19:28.548Z,15.22
2022-09-10T11:29:41.623Z,15.30
2022-09-10T11:39:52.506Z,15.34
2022-09-10T11:50:02.833Z,15.51
2022-09-10T12:00:16.239Z,15.99
2022-09-10T12:10:31.794Z,16.38
2022-09-10T12:20:43.119Z,16.74
2022-09-10T12:31:01.264Z,16.92
2022-09-10T12:41:12.314Z,17.14
2022-09-10T12:51:32.032Z,17.36
2022-09-10T13:01:46.412Z,17.30
2022-09-10T13:11:55.625Z,17.16
2022-09-10T13:22:01.465Z,16.90
2022-09-10T13:32:15.059Z,16.81
2022-09-10T13:42:35.734Z,16.97
2022-09-10T13:52:45.278Z,17.04
2022-09-10T14:02:52.826Z,17.06
2022-09-10T14:13:00.276Z,17.08
2022-09-10T14:23:08.116Z,16.89
2022-09-10T14:33:30.866Z,16.57
2022-09-10T14:43:39.007Z,16.22
2022-09-10T14:53:45.878Z,15.88
2022-09-10T15:03:51.553Z,15.56
2022-09-10T15:13:59.403Z,15.38
2022-09-10T15:24:05.927Z,15.33
2022-09-10T15:34:12.619Z,15.24
2022-09-10T15:44:18.382Z,15.14
2022-09-10T15:54:24.167Z,14.89
2022-09-10T16:04:33.860Z,14.66
2022-09-10T16:14:44.538Z,14.35
2022-09-10T16:24:50.248Z,14.02
2022-09-10T16:34:56.169Z,13.88
2022-09-10T16:45:01.752Z,13.80
2022-09-10T16:55:08.793Z,13.73
2022-09-10T17:05:14.454Z,13.66
2022-09-10T17:15:20.382Z,13.56
2022-09-10T17:25:26.003Z,13.53
2022-09-10T17:35:32.459Z,13.52
2022-09-10T17:45:40.734Z,13.42
2022-09-10T17:55:44.874Z,13.37
2022-09-10T18:05:50.461Z,13.45
2022-09-10T18:15:56.131Z,13.57
2022-09-10T18:26:02.252Z,13.48
2022-09-10T18:36:15.457Z,13.49
2022-09-10T18:46:23.761Z,13.42
2022-09-10T18:56:29.929Z,13.37
2022-09-10T19:06:38.055Z,13.31
2022-09-10T19:16:43.788Z,13.31
2022-09-10T19:26:49.466Z,13.39
2022-09-10T19:36:55.286Z,13.31
2022-09-10T19:47:01.044Z,13.24
2022-09-10T19:57:06.965Z,13.25
2022-09-10T20:07:12.877Z,13.29
2022-09-10T20:17:18.570Z,13.35
2022-09-10T20:27:24.943Z,13.37
2022-09-10T20:37:30.611Z,13.38
2022-09-10T20:47:42.970Z,13.34
2022-09-10T20:57:48.980Z,13.24
2022-09-10T21:07:54.765Z,13.14
2022-09-10T21:18:00.436Z,13.07
2022-09-10T21:28:06.468Z,13.00
2022-09-10T21:38:12.706Z,12.89
2022-09-10T21:48:18.351Z,12.80
2022-09-10T21:58:24.457Z,12.78
2022-09-10T22:08:30.114Z,12.77
2022-09-10T22:18:36.269Z,12.73
2022-09-10T22:28:42.728Z,12.71
2022-09-10T22:38:51.656Z,12.67
2022-09-10T22:48:57.889Z,12.67
2022-09-10T22:59:04.029Z,12.66
2022-09-10T23:09:12.869Z,12.67
2022-09-10T23:19:20.152Z,12.63
2022-09-10T23:29:25.807Z,12.58
2022-09-10T23:39:31.629Z,12.55
2022-09-10T23:49:37.283Z,12.59
2022-09-10T23:59:42.914Z,12.65
